createdAt,value
2022-09-02T00:01:38.280Z,73.76
2022-09-02T00:04:09.305Z,73.60
2022-09-02T00:06:39.479Z,72.96
2022-09-02T00:09:09.463Z,73.19
2022-09-02T00:11:39.080Z,73.31
2022-09-02T00:14:13.510Z,73.05
2022-09-02T00:16:52.319Z,73.03
2022-09-02T00:19:21.990Z,73.03
2022-09-02T00:21:51.924Z,73.66
2022-09-02T00:24:20.376Z,74.56
2022-09-02T00:26:48.585Z,75.50
2022-09-02T00:29:16.927Z,75.94
2022-09-02T00:31:46.718Z,76.26
2022-09-02T00:34:15.252Z,75.75
2022-09-02T00:36:43.376Z,75.73
2022-09-02T00:39:12.816Z,75.41
2022-09-02T00:41:43.232Z,75.70
2022-09-02T00:44:13.589Z,75.54
2022-09-02T00:46:41.910Z,75.72
2022-09-02T00:49:16.044Z,75.64
2022-09-02T00:51:47.549Z,75.21
2022-09-02T00:54:20.153Z,75.13
2022-09-02T00:56:50.561Z,75.05
2022-09-02T00:59:28.190Z,75.25
2022-09-02T01:01:56.555Z,75.35
2022-09-02T01:04:24.753Z,75.33
2022-09-02T01:06:54.051Z,75.49
2022-09-02T01:09:23.574Z,75.11
2022-09-02T01:11:53.600Z,74.78
2022-09-02T01:14:22.150Z,75.03
2022-09-02T01:16:54.410Z,74.89
2022-09-02T01:19:25.763Z,74.85
2022-09-02T01:21:56.664Z,75.33
2022-09-02T01:24:29.087Z,75.46
2022-09-02T01:26:59.416Z,75.64
2022-09-02T01:29:29.399Z,76.08
2022-09-02T01:31:58.284Z,75.80
2022-09-02T01:34:26.998Z,75.76
2022-09-02T01:36:56.617Z,75.69
2022-09-02T01:39:24.768Z,75.93
2022-09-02T01:41:53.372Z,75.31
2022-09-02T01:44:21.653Z,75.20
2022-09-02T01:46:51.364Z,74.96
2022-09-02T01:49:19.547Z,75.29
2022-09-02T01:51:48.642Z,75.41
2022-09-02T01:54:18.548Z,75.57
2022-09-02T01:56:46.558Z,75.43
2022-09-02T01:59:18.004Z,75.55
2022-09-02T02:01:47.017Z,76.08
2022-09-02T02:04:17.109Z,75.80
2022-09-02T02:06:48.871Z,76.65
2022-09-02T02:09:23.448Z,77.19
2022-09-02T02:11:53.266Z,76.98
2022-09-02T02:14:21.505Z,77.01
2022-09-02T02:16:51.822Z,76.73
2022-09-02T02:19:19.971Z,76.81
2022-09-02T02:21:49.339Z,76.97
2022-09-02T02:24:18.406Z,77.02
2022-09-02T02:26:48.074Z,77.02
2022-09-02T02:29:17.316Z,77.36
2022-09-02T02:31:45.923Z,77.38
2022-09-02T02:34:14.099Z,76.91
2022-09-02T02:36:44.135Z,76.84
2022-09-02T02:39:13.620Z,76.10
2022-09-02T02:41:44.949Z,75.57
2022-09-02T02:44:15.636Z,75.20
2022-09-02T02:46:44.086Z,75.28
2022-09-02T02:49:14.107Z,75.02
2022-09-02T02:51:43.600Z,74.64
2022-09-02T02:54:14.424Z,74.80
2022-09-02T02:56:43.131Z,73.99
2022-09-02T02:59:11.330Z,73.76
2022-09-02T03:01:40.990Z,74.26
2022-09-02T03:04:09.251Z,74.56
2022-09-02T03:06:37.300Z,74.94
2022-09-02T03:09:06.066Z,74.99
2022-09-02T03:11:36.539Z,74.83
2022-09-02T03:14:05.209Z,75.34
2022-09-02T03:16:35.611Z,75.79
2022-09-02T03:19:06.169Z,76.16
2022-09-02T03:21:38.771Z,76.10
2022-09-02T03:24:09.058Z,75.83
2022-09-02T03:26:37.263Z,76.52
2022-09-02T03:29:05.791Z,77.11
2022-09-02T03:31:34.841Z,76.79
2022-09-02T03:34:04.228Z,76.73
2022-09-02T03:36:38.780Z,76.98
2022-09-02T03:39:10.046Z,77.43
2022-09-02T03:41:41.336Z,77.14
2022-09-02T03:44:10.818Z,76.92
2022-09-02T03:46:39.969Z,77.06
2022-09-02T03:49:08.217Z,77.25
2022-09-02T03:51:41.800Z,77.34
2022-09-02T03:54:10.941Z,77.30
2022-09-02T03:56:40.385Z,77.50
2022-09-02T03:59:09.581Z,77.55
2022-09-02T04:01:38.314Z,77.97
2022-09-02T04:04:08.393Z,78.14
2022-09-02T04:06:39.688Z,78.19
2022-09-02T04:09:08.069Z,78.46
2022-09-02T04:11:37.234Z,78.67
2022-09-02T04:14:05.642Z,78.63
2022-09-02T04:16:35.366Z,78.76
2022-09-02T04:19:09.548Z,79.28
2022-09-02T04:21:41.837Z,79.20
2022-09-02T04:24:12.738Z,79.07
2022-09-02T04:26:45.374Z,79.47
2022-09-02T04:29:15.464Z,79.75
2022-09-02T04:31:45.313Z,79.86
2022-09-02T04:34:13.570Z,79.50
2022-09-02T04:36:44.221Z,79.90
2022-09-02T04:39:13.711Z,79.72
2022-09-02T04:41:42.590Z,80.22
2022-09-02T04:44:13.081Z,80.68
2022-09-02T04:46:44.601Z,80.83
2022-09-02T04:49:17.733Z,81.65
2022-09-02T04:51:48.539Z,82.44
2022-09-02T04:54:16.598Z,82.58
2022-09-02T04:56:48.694Z,82.94
2022-09-02T04:59:17.086Z,82.65
2022-09-02T05:01:54.250Z,82.05
2022-09-02T05:04:27.360Z,81.63
2022-09-02T05:06:58.220Z,81.33
2022-09-02T05:09:26.388Z,81.40
2022-09-02T05:12:04.346Z,81.13
2022-09-02T05:14:43.574Z,81.48
2022-09-02T05:17:11.952Z,81.26
2022-09-02T05:19:43.522Z,81.56
2022-09-02T05:22:13.441Z,81.78
2022-09-02T05:24:43.767Z,81.54
2022-09-02T05:27:16.316Z,81.35
2022-09-02T05:29:45.767Z,81.37
2022-09-02T05:32:16.065Z,81.27
2022-09-02T05:34:46.581Z,82.05
2022-09-02T05:37:16.049Z,82.48
2022-09-02T05:39:44.325Z,84.97
2022-09-02T05:42:12.447Z,84.82
2022-09-02T05:44:44.563Z,84.03
2022-09-02T05:47:14.042Z,83.31
2022-09-02T05:49:43.067Z,82.33
2022-09-02T05:52:15.793Z,82.03
2022-09-02T05:54:46.866Z,81.70
2022-09-02T05:57:18.789Z,81.02
2022-09-02T06:00:17.768Z,80.82
2022-09-02T06:02:53.406Z,80.64
2022-09-02T06:05:30.003Z,80.22
2022-09-02T06:08:08.440Z,80.39
2022-09-02T06:10:42.519Z,81.40
2022-09-02T06:13:12.674Z,84.03
2022-09-02T06:15:44.284Z,84.93
2022-09-02T06:18:14.294Z,85.44
2022-09-02T06:20:46.927Z,83.92
2022-09-02T06:23:17.907Z,83.36
2022-09-02T06:25:49.311Z,82.41
2022-09-02T06:28:17.931Z,82.46
2022-09-02T06:30:48.560Z,81.19
2022-09-02T06:33:18.740Z,80.56
2022-09-02T06:35:49.422Z,79.77
2022-09-02T06:38:20.988Z,79.56
2022-09-02T06:40:52.775Z,79.58
2022-09-02T06:43:27.955Z,78.79
2022-09-02T06:46:09.731Z,77.44
2022-09-02T06:48:39.128Z,77.28
2022-09-02T06:51:08.899Z,77.87
2022-09-02T06:53:39.095Z,77.62
2022-09-02T06:56:08.607Z,77.54
2022-09-02T06:58:36.673Z,76.93
2022-09-02T07:01:04.977Z,76.25
2022-09-02T07:03:50.773Z,76.22
2022-09-02T07:06:19.061Z,76.25
2022-09-02T07:08:51.576Z,75.59
2022-09-02T07:11:22.874Z,74.49
2022-09-02T07:13:54.419Z,73.70
2022-09-02T07:16:26.956Z,73.22
2022-09-02T07:18:58.015Z,73.64
2022-09-02T07:21:27.231Z,73.19
2022-09-02T07:23:59.639Z,73.46
2022-09-02T07:26:29.114Z,73.94
2022-09-02T07:28:58.462Z,73.89
2022-09-02T07:31:27.537Z,73.38
2022-09-02T07:33:58.897Z,73.02
2022-09-02T07:36:28.872Z,73.20
2022-09-02T07:38:59.709Z,72.22
2022-09-02T07:41:27.745Z,71.83
2022-09-02T07:43:59.620Z,72.25
2022-09-02T07:46:31.643Z,71.65
2022-09-02T07:49:00.425Z,70.86
2022-09-02T07:51:30.902Z,71.36
2022-09-02T07:54:03.128Z,70.63
2022-09-02T07:56:31.544Z,70.05
2022-09-02T07:58:59.721Z,69.93
2022-09-02T08:01:28.043Z,69.62
2022-09-02T08:03:57.949Z,69.87
2022-09-02T08:06:35.002Z,69.69
2022-09-02T08:09:06.796Z,69.16
2022-09-02T08:11:40.074Z,68.93
2022-09-02T08:14:09.103Z,68.46
2022-09-02T08:16:39.122Z,68.00
2022-09-02T08:19:08.511Z,67.99
2022-09-02T08:21:36.631Z,68.78
2022-09-02T08:24:06.371Z,68.89
2022-09-02T08:26:37.149Z,68.71
2022-09-02T08:29:05.503Z,67.96
2022-09-02T08:31:34.060Z,68.16
2022-09-02T08:34:02.481Z,68.18
2022-09-02T08:36:30.473Z,68.62
2022-09-02T08:38:58.664Z,68.53
2022-09-02T08:41:34.684Z,67.78
2022-09-02T08:44:05.235Z,67.84
2022-09-02T08:46:36.013Z,68.35
2022-09-02T08:49:10.780Z,68.38
2022-09-02T08:51:42.849Z,67.36
2022-09-02T08:54:21.420Z,67.16
2022-09-02T08:56:51.855Z,67.16
2022-09-02T08:59:22.187Z,67.32
2022-09-02T09:01:54.671Z,66.40
2022-09-02T09:04:32.951Z,65.48
2022-09-02T09:07:18.301Z,64.30
2022-09-02T09:10:00.480Z,65.01
2022-09-02T09:12:42.296Z,63.11
2022-09-02T09:15:14.953Z,63.80
2022-09-02T09:17:46.598Z,64.01
2022-09-02T09:20:20.465Z,62.93
2022-09-02T09:22:50.841Z,62.89
2022-09-02T09:25:19.968Z,62.47
2022-09-02T09:27:49.330Z,62.04
2022-09-02T09:30:17.452Z,61.42
2022-09-02T09:32:48.815Z,61.73
2022-09-02T09:35:18.031Z,60.62
2022-09-02T09:37:48.171Z,59.76
2022-09-02T09:40:38.416Z,59.61
2022-09-02T09:43:16.218Z,59.85
2022-09-02T09:45:45.845Z,60.22
2022-09-02T09:48:30.784Z,58.77
2022-09-02T09:51:14.120Z,57.58
2022-09-02T09:53:42.293Z,59.01
2022-09-02T09:56:26.687Z,58.85
2022-09-02T09:58:56.159Z,59.19
2022-09-02T10:01:26.491Z,59.67
2022-09-02T10:03:58.196Z,59.58
2022-09-02T10:06:37.464Z,59.85
2022-09-02T10:09:07.498Z,59.89
2022-09-02T10:11:37.741Z,59.88
2022-09-02T10:14:10.028Z,60.64
2022-09-02T10:16:51.931Z,60.83
2022-09-02T10:19:31.024Z,61.07
2022-09-02T10:22:14.459Z,60.98
2022-09-02T10:25:02.066Z,61.23
2022-09-02T10:27:38.726Z,60.80
2022-09-02T10:30:15.595Z,61.41
2022-09-02T10:32:59.855Z,61.15
2022-09-02T10:35:39.830Z,61.30
2022-09-02T10:38:29.340Z,60.95
2022-09-02T10:41:07.719Z,60.96
2022-09-02T10:43:57.208Z,60.55
2022-09-02T10:46:27.890Z,60.55
2022-09-02T10:49:06.635Z,60.69
2022-09-02T10:51:43.798Z,60.41
2022-09-02T10:54:24.421Z,59.50
2022-09-02T10:56:58.472Z,60.67
2022-09-02T10:59:30.489Z,61.58
2022-09-02T11:02:09.076Z,59.98
2022-09-02T11:04:41.747Z,59.69
2022-09-02T11:07:13.540Z,59.19
2022-09-02T11:09:48.977Z,59.03
2022-09-02T11:12:21.300Z,58.82
2022-09-02T11:15:00.272Z,59.16
2022-09-02T11:17:36.901Z,57.79
2022-09-02T11:20:11.805Z,58.19
2022-09-02T11:22:47.391Z,58.09
2022-09-02T11:25:19.063Z,56.68
2022-09-02T11:27:56.048Z,57.08
2022-09-02T11:30:27.896Z,57.08
2022-09-02T11:33:03.470Z,56.29
2022-09-02T11:35:38.740Z,56.16
2022-09-02T11:38:12.945Z,56.30
2022-09-02T11:43:50.071Z,55.43
2022-09-02T11:46:42.171Z,55.84
2022-09-02T11:49:44.304Z,54.85
2022-09-02T11:52:27.189Z,54.46
2022-09-02T11:55:05.932Z,55.39
2022-09-02T11:57:34.053Z,54.88
2022-09-02T12:00:13.752Z,54.20
2022-09-02T12:02:46.269Z,54.16
2022-09-02T12:05:51.477Z,53.81
2022-09-02T12:09:02.751Z,52.08
2022-09-02T12:11:53.226Z,53.38
2022-09-02T12:15:07.363Z,52.86
2022-09-02T12:17:38.468Z,52.15
2022-09-02T12:20:09.549Z,53.31
2022-09-02T12:22:42.565Z,52.69
2022-09-02T12:25:38.280Z,52.23
2022-09-02T12:28:21.590Z,52.41
2022-09-02T12:31:14.568Z,52.48
2022-09-02T12:33:45.322Z,52.35
2022-09-02T12:36:44.043Z,52.59
2022-09-02T12:39:52.911Z,53.27
2022-09-02T12:42:28.195Z,53.25
2022-09-02T12:45:06.834Z,53.29
2022-09-02T12:47:48.067Z,52.97
2022-09-02T12:50:26.453Z,53.81
2022-09-02T12:53:10.205Z,52.74
2022-09-02T12:55:41.250Z,53.09
2022-09-02T12:58:11.800Z,52.37
2022-09-02T13:01:01.073Z,51.36
2022-09-02T13:03:43.884Z,51.57
2022-09-02T13:06:21.318Z,52.69
2022-09-02T13:09:15.983Z,52.83
2022-09-02T13:12:16.484Z,52.79
2022-09-02T13:15:05.248Z,51.66
2022-09-02T13:17:48.311Z,51.96
2022-09-02T13:20:55.947Z,52.52
2022-09-02T13:24:00.768Z,52.24
2022-09-02T13:26:54.966Z,53.51
2022-09-02T13:30:09.574Z,50.86
2022-09-02T13:32:38.110Z,51.68
2022-09-02T13:35:08.819Z,51.99
2022-09-02T13:37:39.192Z,53.08
2022-09-02T13:40:19.314Z,52.85
2022-09-02T13:42:52.123Z,52.82
2022-09-02T13:45:23.560Z,53.47
2022-09-02T13:47:54.008Z,53.79
2022-09-02T13:50:24.425Z,54.19
2022-09-02T13:53:49.303Z,53.74
2022-09-02T13:55:51.074Z,53.59
2022-09-02T13:58:35.152Z,52.88
2022-09-02T14:01:28.980Z,52.93
2022-09-02T14:03:59.067Z,52.66
2022-09-02T14:06:31.427Z,52.55
2022-09-02T14:09:02.372Z,53.20
2022-09-02T14:11:39.288Z,53.17
2022-09-02T14:14:07.670Z,53.33
2022-09-02T14:16:38.118Z,52.85
2022-09-02T14:19:10.400Z,53.17
2022-09-02T14:21:45.224Z,53.89
2022-09-02T14:24:14.293Z,53.09
2022-09-02T14:26:45.198Z,53.14
2022-09-02T14:29:16.057Z,53.57
2022-09-02T14:31:46.293Z,53.61
2022-09-02T14:34:38.732Z,53.65
2022-09-02T14:37:25.565Z,54.22
2022-09-02T14:40:12.077Z,52.82
2022-09-02T14:42:51.750Z,53.63
2022-09-02T14:45:28.079Z,53.91
2022-09-02T14:47:58.671Z,54.16
2022-09-02T14:50:30.677Z,54.54
2022-09-02T14:53:04.856Z,55.58
2022-09-02T14:55:48.955Z,54.45
2022-09-02T14:58:18.096Z,54.30
2022-09-02T15:00:48.895Z,55.15
2022-09-02T15:03:18.280Z,54.80
2022-09-02T15:05:46.601Z,55.03
2022-09-02T15:08:15.826Z,55.17
2022-09-02T15:10:45.788Z,55.51
2022-09-02T15:13:16.000Z,54.80
2022-09-02T15:15:43.980Z,54.47
2022-09-02T15:18:14.169Z,54.64
2022-09-02T15:20:43.600Z,54.98
2022-09-02T15:23:11.570Z,54.71
2022-09-02T15:25:39.574Z,55.39
2022-09-02T15:28:07.591Z,55.37
2022-09-02T15:30:36.706Z,54.24
2022-09-02T15:33:05.483Z,53.44
2022-09-02T15:35:34.580Z,53.35
2022-09-02T15:38:04.598Z,54.22
2022-09-02T15:40:33.305Z,54.10
2022-09-02T15:43:01.429Z,53.98
2022-09-02T15:45:29.387Z,53.18
2022-09-02T15:47:59.559Z,53.05
2022-09-02T15:50:28.339Z,52.82
2022-09-02T15:52:56.974Z,52.46
2022-09-02T15:55:29.411Z,51.39
2022-09-02T15:57:57.745Z,50.67
2022-09-02T16:00:27.672Z,50.18
2022-09-02T16:02:57.462Z,50.36
2022-09-02T16:05:25.485Z,49.35
2022-09-02T16:07:55.199Z,50.19
2022-09-02T16:10:23.419Z,49.12
2022-09-02T16:12:52.751Z,49.20
2022-09-02T16:15:20.959Z,48.62
2022-09-02T16:17:50.066Z,48.01
2022-09-02T16:20:21.238Z,48.57
2022-09-02T16:22:49.454Z,48.66
2022-09-02T16:25:17.515Z,48.89
2022-09-02T16:27:55.935Z,48.51
2022-09-02T16:30:25.795Z,47.37
2022-09-02T16:32:54.522Z,47.69
2022-09-02T16:35:22.516Z,47.78
2022-09-02T16:37:50.957Z,47.06
2022-09-02T16:40:21.616Z,47.17
2022-09-02T16:42:50.051Z,47.16
2022-09-02T16:45:18.032Z,47.40
2022-09-02T16:47:47.332Z,47.80
2022-09-02T16:50:15.727Z,48.13
2022-09-02T16:52:43.698Z,48.49
2022-09-02T16:55:17.802Z,49.04
2022-09-02T16:57:45.799Z,49.64
2022-09-02T17:00:15.239Z,49.29
2022-09-02T17:02:44.056Z,49.18
2022-09-02T17:05:17.427Z,49.55
2022-09-02T17:07:46.361Z,49.20
2022-09-02T17:10:14.291Z,49.10
2022-09-02T17:12:43.302Z,49.27
2022-09-02T17:15:11.718Z,48.50
2022-09-02T17:17:40.125Z,48.47
2022-09-02T17:20:08.943Z,48.48
2022-09-02T17:22:38.359Z,48.33
2022-09-02T17:25:07.506Z,49.27
2022-09-02T17:27:36.415Z,49.88
2022-09-02T17:30:05.475Z,50.02
2022-09-02T17:32:33.536Z,50.63
2022-09-02T17:35:02.747Z,51.75
2022-09-02T17:37:30.693Z,52.10
2022-09-02T17:40:00.140Z,52.41
2022-09-02T17:42:27.254Z,53.77
2022-09-02T17:44:55.204Z,54.16
2022-09-02T17:47:24.169Z,54.95
2022-09-02T17:49:52.514Z,55.92
2022-09-02T17:52:21.988Z,56.04
2022-09-02T17:54:51.291Z,55.78
2022-09-02T17:57:43.252Z,55.56
2022-09-02T18:00:13.407Z,56.09
2022-09-02T18:03:12.403Z,57.03
2022-09-02T18:05:53.038Z,58.00
2022-09-02T18:08:32.421Z,57.18
2022-09-02T18:11:05.213Z,57.32
2022-09-02T18:13:40.671Z,58.06
2022-09-02T18:16:23.493Z,58.92
2022-09-02T18:19:03.049Z,58.57
2022-09-02T18:21:42.165Z,57.87
2022-09-02T18:24:17.693Z,58.86
2022-09-02T18:26:58.392Z,59.46
2022-09-02T18:29:43.336Z,59.06
2022-09-02T18:32:20.379Z,59.75
2022-09-02T18:34:55.537Z,59.92
2022-09-02T18:37:31.885Z,60.14
2022-09-02T18:40:10.936Z,60.26
2022-09-02T18:42:50.354Z,60.10
2022-09-02T18:45:26.049Z,61.25
2022-09-02T18:47:56.243Z,61.10
2022-09-02T18:50:47.473Z,60.91
2022-09-02T18:53:19.765Z,60.80
2022-09-02T18:55:48.884Z,60.48
2022-09-02T18:58:34.274Z,61.20
2022-09-02T19:01:10.366Z,60.56
2022-09-02T19:03:38.834Z,62.18
2022-09-02T19:06:12.975Z,62.30
2022-09-02T19:08:40.547Z,62.49
2022-09-02T19:11:12.913Z,65.33
2022-09-02T19:13:47.568Z,65.51
2022-09-02T19:16:19.748Z,66.35
2022-09-02T19:18:47.998Z,68.53
2022-09-02T19:21:20.559Z,71.42
2022-09-02T19:23:50.005Z,75.03
2022-09-02T19:26:18.875Z,76.30
2022-09-02T19:28:48.457Z,73.80
2022-09-02T19:31:22.627Z,73.72
2022-09-02T19:33:52.783Z,72.94
2022-09-02T19:36:22.045Z,76.05
2022-09-02T19:38:50.013Z,75.94
2022-09-02T19:41:17.958Z,79.25
2022-09-02T19:43:46.315Z,80.17
2022-09-02T19:46:27.913Z,80.79
2022-09-02T19:49:05.002Z,80.03
2022-09-02T19:51:32.937Z,80.12
2022-09-02T19:54:01.053Z,84.44
2022-09-02T19:56:29.015Z,83.84
2022-09-02T19:58:57.007Z,83.16
2022-09-02T20:01:25.062Z,82.92
2022-09-02T20:03:53.344Z,83.75
2022-09-02T20:06:22.773Z,85.10
2022-09-02T20:08:51.220Z,85.23
2022-09-02T20:11:19.234Z,85.28
2022-09-02T20:13:49.205Z,84.72
2022-09-02T20:16:20.391Z,84.45
2022-09-02T20:18:49.417Z,83.35
2022-09-02T20:21:22.149Z,82.78
2022-09-02T20:23:53.876Z,82.48
2022-09-02T20:26:35.131Z,82.48
2022-09-02T20:29:16.461Z,82.59
2022-09-02T20:31:59.000Z,82.97
2022-09-02T20:34:40.231Z,83.85
2022-09-02T20:37:20.344Z,84.03
2022-09-02T20:40:06.745Z,85.06
2022-09-02T20:42:53.400Z,85.34
2022-09-02T20:45:27.000Z,83.83
2022-09-02T20:48:07.431Z,83.26
2022-09-02T20:50:50.063Z,83.53
2022-09-02T20:53:28.734Z,83.63
2022-09-02T20:56:04.829Z,83.46
2022-09-02T20:58:41.304Z,82.92
2022-09-02T21:01:10.897Z,82.20
2022-09-02T21:03:49.776Z,81.92
2022-09-02T21:06:22.162Z,82.87
2022-09-02T21:09:00.612Z,84.00
2022-09-02T21:11:43.135Z,82.93
2022-09-02T21:14:16.394Z,83.74
2022-09-02T21:16:50.246Z,83.57
2022-09-02T21:19:30.434Z,81.08
2022-09-02T21:22:03.100Z,81.46
2022-09-02T21:24:37.072Z,81.96
2022-09-02T21:27:13.184Z,82.20
2022-09-02T21:29:46.588Z,83.31
2022-09-02T21:32:20.698Z,84.10
2022-09-02T21:34:55.122Z,84.36
2022-09-02T21:37:24.733Z,83.49
2022-09-02T21:39:58.096Z,83.59
2022-09-02T21:42:37.317Z,83.72
2022-09-02T21:45:13.427Z,83.22
2022-09-02T21:47:52.765Z,83.46
2022-09-02T21:50:26.285Z,83.02
2022-09-02T21:53:04.755Z,81.50
2022-09-02T21:55:46.107Z,81.71
2022-09-02T21:58:34.244Z,81.77
2022-09-02T22:01:07.767Z,82.98
2022-09-02T22:03:42.179Z,81.38
2022-09-02T22:06:14.784Z,81.51
2022-09-02T22:08:50.370Z,82.09
2022-09-02T22:11:26.593Z,82.00
2022-09-02T22:13:59.404Z,81.10
2022-09-02T22:16:41.221Z,81.51
2022-09-02T22:19:10.007Z,80.80
2022-09-02T22:21:48.467Z,79.57
2022-09-02T22:24:18.083Z,79.91
2022-09-02T22:26:51.323Z,81.00
2022-09-02T22:29:27.185Z,81.32
2022-09-02T22:31:59.606Z,83.53
2022-09-02T22:34:29.759Z,84.97
2022-09-02T22:37:01.688Z,85.67
2022-09-02T22:39:36.254Z,85.70
2022-09-02T22:42:11.093Z,86.18
2022-09-02T22:45:03.503Z,86.76
2022-09-02T22:47:51.716Z,86.54
2022-09-02T22:50:44.845Z,87.36
2022-09-02T22:53:12.954Z,87.33
2022-09-02T22:55:54.317Z,85.96
2022-09-02T22:58:32.899Z,86.08
2022-09-02T23:01:13.652Z,84.92
2022-09-02T23:03:47.815Z,85.55
2022-09-02T23:06:22.482Z,84.21
2022-09-02T23:08:50.469Z,84.55
2022-09-02T23:11:28.545Z,84.47
2022-09-02T23:14:10.507Z,84.35
2022-09-02T23:17:15.616Z,86.02
2022-09-02T23:20:06.521Z,87.13
2022-09-02T23:23:09.419Z,87.08
2022-09-02T23:26:05.110Z,86.97
2022-09-02T23:28:43.444Z,87.69
2022-09-02T23:31:21.953Z,87.07
2022-09-02T23:34:01.430Z,85.57
2022-09-02T23:36:40.228Z,86.82
2022-09-02T23:39:30.914Z,88.12
2022-09-02T23:42:01.404Z,87.94
2022-09-02T23:44:30.101Z,86.57
2022-09-02T23:47:11.247Z,86.10
2022-09-02T23:49:49.079Z,85.89
2022-09-02T23:52:26.413Z,84.36
2022-09-02T23:55:02.094Z,84.44
2022-09-02T23:57:52.817Z,85.71
